Terminal Aerodrome Forecast
Issued by NWS

Home | Current Version | Previous Version | Text Only | Print | Product List | Glossary On
Versions: 1 2 3 4 5 6 7 8 9 10 11 12 13 14 15 16 17 18 19 20 21 22 23
920
FTUS46 KSEW 101746
TAFBLI
TAF
KBLI 101746Z 1018/1118 02006KT P6SM -SN BKN018 OVC040
      TEMPO 1018/1022 4SM -FZRA OVC018
     FM102200 15012KT P6SM -SHRA BKN025 OVC040
     FM110300 15013G20KT P6SM -SHRA BKN025 OVC040=

USA.gov is the U.S. government's official web portal to all federal, state and local government web resources and services.